NZCH/CHC METAR and TAF weather

Enter ICAO airport designator
Station Type Date Time Source
NZCH METAR 2021/09/28 16:00 UTC NOAA

NZCH 281600Z AUTO 36002KT 9999 NCD 00/M01 Q1013 NOSIG


Station Type Date Time Source
NZCH Decoded METAR 2021/09/28 16:00 UTC NOAA

Christchurch, New Zealand (NZCH) 43-29S 172-33E 30M
Sep 28, 2021 - 12:00 PM EDT / 2021.09.28 1600 UTC
Wind: from the N (360 degrees) at 2 MPH (2 KT):0
Visibility: greater than 7 mile(s):0
Temperature: 32 F (0 C)
Dew Point: 30 F (-1 C)
Relative Humidity: 92%
Pressure (altimeter): 29.91 in. Hg (1013 hPa)
ob: NZCH 281600Z AUTO 36002KT 9999 NCD 00/M01 Q1013 NOSIG
cycle: 16

Station Type Date Time Source
NZCH TAF 2021/09/28 12:21 UTC NOAA

TAF NZCH 281111Z 2812/2912 36005KT CAVOK
BECMG 2823/2901 30012KT
BECMG 2901/2903 29015G25KT
FM290700 28012KT 9999 BKN060
FM291100 19012KT 9999 -SHRA SCT015 BKN025

Example: see airport list